Luminous Kobe-2 — JJ3868 — position and weather

sailwx.info

Track history (hours):
 
Tides and Currents Weather Stations Pressure Air Temp Water Temp Dewpoint Dewpoint Depression Visibility Wind Speed Wind Dir Waves Ship Positions

Luminous Kobe-2

Last reported at 2016-Dec-04 11:33 UTC. Time now 2016-Dec-04 12:11 UTC.
Position N 34°36' E 135°07'.

Length 105 m; draft 4.5 m.

Type: Passenger vessel. MMSI: 431000469.

Date/timePositionNaut miles runAvg speedWind from/ knotsBaromVisibWave heightAir tempDewpointWater temp
2016-Dec-04 11:33N 34°36' E 135°07'1 0.9
2016-Dec-04 10:33N 34°37' E 135°06'6 5.4
2016-Dec-04 09:28N 34°41' E 135°11'2 1.8
2016-Dec-04 08:33N 34°39' E 135°11'2 2.3
2016-Dec-04 07:33N 34°37' E 135°13'4 3.2
2016-Dec-04 06:23N 34°41' E 135°11'0 0.0
2016-Dec-04 05:29N 34°41' E 135°11'2 2.2
2016-Dec-04 04:33N 34°39' E 135°11'2 1.8
2016-Dec-04 03:33N 34°38' E 135°13'4 3.5
2016-Dec-04 02:33N 34°41' E 135°11'0 0.0
2016-Dec-04 01:33N 34°41' E 135°11'0 0.0
2016-Dec-04 00:33N 34°41' E 135°11'0 0.0
2016-Dec-03 23:33N 34°41' E 135°11'0 0.0
2016-Dec-03 22:33N 34°41' E 135°11'0 0.0
2016-Dec-03 21:33N 34°41' E 135°11'0 0.0
2016-Dec-03 20:33N 34°41' E 135°11'0 0.0
2016-Dec-03 19:33N 34°41' E 135°11'0 0.0
2016-Dec-03 18:33N 34°41' E 135°11'0 0.0
2016-Dec-03 17:33N 34°41' E 135°11'0 0.0
2016-Dec-03 16:33N 34°41' E 135°11'0 0.0
2016-Dec-03 15:33N 34°41' E 135°11'0 0.0
2016-Dec-03 14:33N 34°41' E 135°11'0 0.0
2016-Dec-03 13:33N 34°41' E 135°11'0 0.0
2016-Dec-03 12:28N 34°41' E 135°11'6 6.7
2016-Dec-03 11:33N 34°36' E 135°07'1 1.0
2016-Dec-03 10:33N 34°37' E 135°06'6 5.2
2016-Dec-03 09:28N 34°41' E 135°11'1 1.4
2016-Dec-03 08:33N 34°40' E 135°11'3 2.5
2016-Dec-03 07:34N 34°37' E 135°13'4 3.2
2016-Dec-03 06:23N 34°41' E 135°11'0 0.0
2016-Dec-03 05:29N 34°41' E 135°11'2 2.1
2016-Dec-03 04:33N 34°39' E 135°11'2 2.0
2016-Dec-03 03:33N 34°37' E 135°13'4 3.6
2016-Dec-03 02:32N 34°41' E 135°11'0 0.0
2016-Dec-03 01:32N 34°41' E 135°11'0 0.0
2016-Dec-03 00:26N 34°41' E 135°11'0 0.0
2016-Dec-02 23:32N 34°41' E 135°11'0 0.0
2016-Dec-02 22:32N 34°41' E 135°11'0 0.0
2016-Dec-02 21:26N 34°41' E 135°11'0 0.0
2016-Dec-02 20:32N 34°41' E 135°11'0 0.0
2016-Dec-02 19:20N 34°41' E 135°11'0 0.0
2016-Dec-02 18:32N 34°41' E 135°11'0 0.0
2016-Dec-02 17:26N 34°41' E 135°11'0 0.0
2016-Dec-02 16:32N 34°41' E 135°11'0 0.0
2016-Dec-02 15:32N 34°41' E 135°11'0 0.0
2016-Dec-02 14:32N 34°41' E 135°11'0 0.0
2016-Dec-02 13:32N 34°41' E 135°11'0 0.0
2016-Dec-02 12:32N 34°41' E 135°11'7 7.4
2016-Dec-02 11:33N 34°35' E 135°06'2 1.8
2016-Dec-02 10:33N 34°37' E 135°07'6 5.3
2016-Dec-02 09:30N 34°41' E 135°11'5 4.9
2016-Dec-02 08:33N 34°37' E 135°08'5 4.1
2016-Dec-02 07:24N 34°41' E 135°11'0 0.0
2016-Dec-02 06:30N 34°41' E 135°11'0 0.0
2016-Dec-02 05:30N 34°41' E 135°11'2 2.3
2016-Dec-02 04:34N 34°39' E 135°11'2 2.2
2016-Dec-02 03:34N 34°37' E 135°13'4 3.5
2016-Dec-02 02:30N 34°41' E 135°11'0 0.0
2016-Dec-02 01:24N 34°41' E 135°11'0 0.0
2016-Dec-02 00:12N 34°41' E 135°11'0 0.0
2016-Dec-01 23:30N 34°41' E 135°11'0 0.0
2016-Dec-01 22:24N 34°41' E 135°11'0 0.0
2016-Dec-01 21:30N 34°41' E 135°11'0 0.0
2016-Dec-01 20:30N 34°41' E 135°11'0 0.0
2016-Dec-01 19:30N 34°41' E 135°11'0 0.0
2016-Dec-01 18:24N 34°41' E 135°11'0 0.0
2016-Dec-01 17:18N 34°41' E 135°11'0 0.0
2016-Dec-01 16:30N 34°41' E 135°11'0 0.0
2016-Dec-01 15:30N 34°41' E 135°11'0 0.0
2016-Dec-01 14:30N 34°41' E 135°11'0 0.0
2016-Dec-01 13:30N 34°41' E 135°11'0 0.0
2016-Dec-01 12:24N 34°41' E 135°11'6 7.3
2016-Dec-01 11:33N 34°36' E 135°07'1 1.0
2016-Dec-01 10:33N 34°37' E 135°06'6 5.4
2016-Dec-01 09:28N 34°41' E 135°11'5 5.1
2016-Dec-01 08:33N 34°37' E 135°08'5 4.0
2016-Dec-01 07:22N 34°41' E 135°11'0 0.0
2016-Dec-01 06:28N 34°41' E 135°11'0 0.0
2016-Dec-01 05:28N 34°41' E 135°11'2 2.4
2016-Dec-01 04:34N 34°39' E 135°11'2 2.1
2016-Dec-01 03:33N 34°37' E 135°13'4 3.5
2016-Dec-01 02:30N 34°41' E 135°11'0 0.0
2016-Dec-01 01:30N 34°41' E 135°11'0 0.0
2016-Dec-01 00:30N 34°41' E 135°11'0 0.0
2016-Nov-30 23:24N 34°41' E 135°11'0 0.0
2016-Nov-30 22:30N 34°41' E 135°11'0 0.0
2016-Nov-30 21:30N 34°41' E 135°11'0 0.0
2016-Nov-30 20:30N 34°41' E 135°11'0 0.0
2016-Nov-30 19:24N 34°41' E 135°11'0 0.0
2016-Nov-30 18:30N 34°41' E 135°11'0 0.0
2016-Nov-30 17:30N 34°41' E 135°11'0 0.0
2016-Nov-30 16:30N 34°41' E 135°11'0 0.0
2016-Nov-30 15:30N 34°41' E 135°11'0 0.0
2016-Nov-30 14:30N 34°41' E 135°11'0 0.0
2016-Nov-30 13:30N 34°41' E 135°11'0 0.0
2016-Nov-30 12:30N 34°41' E 135°11'7 7.4
2016-Nov-30 11:33N 34°36' E 135°06'1 1.2
2016-Nov-30 10:33N 34°37' E 135°06'6 5.0
2016-Nov-30 09:20N 34°41' E 135°11'5 5.9
2016-Nov-30 08:33N 34°37' E 135°08'5 4.1
2016-Nov-30 07:24N 34°41' E 135°11'0 0.0
2016-Nov-30 06:30N 34°41' E 135°11'0 0.0
2016-Nov-30 05:30N 34°41' E 135°11'2 2.2
2016-Nov-30 04:33N 34°39' E 135°11'2 1.9
2016-Nov-30 03:34N 34°38' E 135°13'4 2.9
2016-Nov-30 02:19N 34°41' E 135°11'0 0.0
2016-Nov-30 01:19N 34°41' E 135°11'0 0.0
2016-Nov-30 00:31N 34°41' E 135°11'0 0.0
2016-Nov-29 23:31N 34°41' E 135°11'0 0.0
2016-Nov-29 22:31N 34°41' E 135°11'0 0.0
2016-Nov-29 21:31N 34°41' E 135°11'0 0.0
2016-Nov-29 20:31N 34°41' E 135°11'0 0.0
2016-Nov-29 19:31N 34°41' E 135°11'0 0.0
2016-Nov-29 18:31N 34°41' E 135°11'0 0.0
2016-Nov-29 17:31N 34°41' E 135°11'0 0.0
2016-Nov-29 16:31N 34°41' E 135°11'0 0.0
2016-Nov-29 15:31N 34°41' E 135°11'0 0.0
2016-Nov-29 14:31N 34°41' E 135°11'0 0.0
2016-Nov-29 13:31N 34°41' E 135°11'0 0.0
2016-Nov-29 12:31N 34°41' E 135°11'8 7.8
2016-Nov-29 11:33N 34°35' E 135°06'2 1.9
2016-Nov-29 10:33N 34°37' E 135°06'6 5.1
2016-Nov-29 09:23N 34°41' E 135°11'5 5.7
2016-Nov-29 08:33N 34°37' E 135°07'5 4.3
2016-Nov-29 07:28N 34°41' E 135°11'0 0.0
2016-Nov-29 06:28N 34°41' E 135°11'0 0.0
2016-Nov-29 05:22N 34°41' E 135°11'2 2.9
2016-Nov-29 04:33N 34°38' E 135°11'2 2.1
2016-Nov-29 03:34N 34°37' E 135°13'4 3.7
2016-Nov-29 02:33N 34°41' E 135°11'0 0.0
2016-Nov-29 01:33N 34°41' E 135°11'0 0.0
2016-Nov-29 00:33N 34°41' E 135°11'0 0.0
2016-Nov-28 23:33N 34°41' E 135°11'0 0.0
2016-Nov-28 22:33N 34°41' E 135°11'0 0.0
2016-Nov-28 21:27N 34°41' E 135°11'0 0.0
2016-Nov-28 20:33N 34°41' E 135°11'0 0.0
2016-Nov-28 19:33N 34°41' E 135°11'0 0.0
2016-Nov-28 18:33N 34°41' E 135°11'0 0.0
2016-Nov-28 17:27N 34°41' E 135°11'0 0.0
2016-Nov-28 16:33N 34°41' E 135°11'0 0.0
2016-Nov-28 15:33N 34°41' E 135°11'0 0.0
2016-Nov-28 14:33N 34°41' E 135°11'0 0.0
2016-Nov-28 13:33N 34°41' E 135°11'0 0.0
2016-Nov-28 12:33N 34°41' E 135°11'7 6.5
2016-Nov-28 11:33N 34°36' E 135°06'1 1.0
2016-Nov-28 10:33N 34°37' E 135°06'6 6.0
2016-Nov-28 09:32N 34°41' E 135°11'5 4.7
2016-Nov-28 08:34N 34°37' E 135°08'5 4.5
2016-Nov-28 07:32N 34°41' E 135°11'0 0.0
2016-Nov-28 06:32N 34°41' E 135°11'0 0.0
2016-Nov-28 05:26N 34°41' E 135°11'2 2.5
2016-Nov-28 04:33N 34°39' E 135°11'2 2.1
2016-Nov-28 03:34N 34°37' E 135°13'4 3.7
2016-Nov-28 02:33N 34°41' E 135°11'0 0.0
2016-Nov-28 01:33N 34°41' E 135°11'0 0.0
2016-Nov-28 00:33N 34°41' E 135°11'0 0.0
2016-Nov-27 23:27N 34°41' E 135°11'0 0.0
2016-Nov-27 22:27N 34°41' E 135°11'0 0.0
2016-Nov-27 21:27N 34°41' E 135°11'0 0.0
2016-Nov-27 20:33N 34°41' E 135°11'0 0.0
2016-Nov-27 19:33N 34°41' E 135°11'0 0.0
2016-Nov-27 18:33N 34°41' E 135°11'0 0.0
2016-Nov-27 17:33N 34°41' E 135°11'0 0.0
2016-Nov-27 16:33N 34°41' E 135°11'0 0.0
2016-Nov-27 15:33N 34°41' E 135°11'0 0.0
2016-Nov-27 14:15N 34°41' E 135°11'0 0.0
2016-Nov-27 13:33N 34°41' E 135°11'0 0.0
2016-Nov-27 12:33N 34°41' E 135°11'7 7.1
2016-Nov-27 11:33N 34°35' E 135°06'1 1.0
2016-Nov-27 10:33N 34°36' E 135°06'6 5.7
2016-Nov-27 09:30N 34°41' E 135°11'2 1.6
2016-Nov-27 08:33N 34°39' E 135°11'2 2.1
2016-Nov-27 07:33N 34°37' E 135°13'4 3.4
2016-Nov-27 06:30N 34°41' E 135°11'0 0.0
2016-Nov-27 05:24N 34°41' E 135°11'2 2.5
2016-Nov-27 04:33N 34°39' E 135°11'2 2.1
2016-Nov-27 03:33N 34°37' E 135°13'4 3.7
2016-Nov-27 02:32N 34°41' E 135°11'0 0.0
2016-Nov-27 01:20N 34°41' E 135°11'0 0.0
2016-Nov-27 00:32N 34°41' E 135°11'0 0.0
2016-Nov-26 23:32N 34°41' E 135°11'0 0.0
2016-Nov-26 22:20N 34°41' E 135°11'0 0.0
2016-Nov-26 21:32N 34°41' E 135°11'0 0.0
2016-Nov-26 19:32N 34°41' E 135°11'0 0.0
2016-Nov-26 18:32N 34°41' E 135°11'0 0.0
2016-Nov-26 17:32N 34°41' E 135°11'0 0.0
2016-Nov-26 16:32N 34°41' E 135°11'0 0.0
2016-Nov-26 15:26N 34°41' E 135°11'0 0.0
2016-Nov-26 14:20N 34°41' E 135°11'0 0.0
2016-Nov-26 13:32N 34°41' E 135°11'0 0.0
2016-Nov-26 12:32N 34°41' E 135°11'7 7.3
2016-Nov-26 11:33N 34°35' E 135°06'3 2.8
2016-Nov-26 10:34N 34°37' E 135°08'4 4.3
2016-Nov-26 09:33N 34°41' E 135°11'2 1.6
2016-Nov-26 08:33N 34°39' E 135°11'2 2.3
2016-Nov-26 07:33N 34°37' E 135°13'4 3.2
2016-Nov-26 06:24N 34°41' E 135°11'0 0.0
2016-Nov-26 05:06N 34°41' E 135°11'3 4.7
2016-Nov-26 04:33N 34°38' E 135°11'2 1.6
2016-Nov-26 03:33N 34°38' E 135°13'3 3.3
2016-Nov-26 02:31N 34°41' E 135°11'0 0.0
2016-Nov-26 01:31N 34°41' E 135°11'0 0.0
2016-Nov-26 00:31N 34°41' E 135°11'0 0.0
2016-Nov-25 23:28N 34°41' E 135°11'0 0.0
2016-Nov-25 22:22N 34°41' E 135°11'0 0.0
2016-Nov-25 21:28N 34°41' E 135°11'0 0.0
2016-Nov-25 20:28N 34°41' E 135°11'0 0.0
2016-Nov-25 19:28N 34°41' E 135°11'0 0.0
2016-Nov-25 18:28N 34°41' E 135°11'0 0.0
2016-Nov-25 17:28N 34°41' E 135°11'0 0.0
2016-Nov-25 16:28N 34°41' E 135°11'0 0.0
2016-Nov-25 15:28N 34°41' E 135°11'0 0.0
2016-Nov-25 14:28N 34°41' E 135°11'0 0.0
2016-Nov-25 13:28N 34°41' E 135°11'0 0.0
2016-Nov-25 12:28N 34°41' E 135°11'6 6.7
2016-Nov-25 11:32N 34°36' E 135°07'2 1.7
2016-Nov-25 10:33N 34°37' E 135°06'6 5.5
2016-Nov-25 09:26N 34°41' E 135°11'5 5.4
2016-Nov-25 08:33N 34°37' E 135°08'5 4.7
2016-Nov-25 07:33N 34°41' E 135°11'0 0.0
2016-Nov-25 06:33N 34°41' E 135°11'0 0.0
2016-Nov-25 05:27N 34°41' E 135°11'2 2.4
2016-Nov-25 04:34N 34°39' E 135°11'2 2.1
2016-Nov-25 03:34N 34°37' E 135°13'4 3.4
2016-Nov-25 02:26N 34°41' E 135°11'0 0.0
2016-Nov-25 01:32N 34°41' E 135°11'0 0.0
2016-Nov-25 00:32N 34°41' E 135°11'0 0.0
2016-Nov-24 23:32N 34°41' E 135°11'0 0.0
2016-Nov-24 22:26N 34°41' E 135°11'0 0.0
2016-Nov-24 21:26N 34°41' E 135°11'0 0.0
2016-Nov-24 20:32N 34°41' E 135°11'0 0.0
2016-Nov-24 19:32N 34°41' E 135°11'0 0.0
2016-Nov-24 18:32N 34°41' E 135°11'0 0.0
2016-Nov-24 17:32N 34°41' E 135°11'0 0.0
2016-Nov-24 16:32N 34°41' E 135°11'0 0.0
2016-Nov-24 15:32N 34°41' E 135°11'0 0.0
2016-Nov-24 14:32N 34°41' E 135°11'0 0.0
2016-Nov-24 13:20N 34°41' E 135°11'0 0.0
2016-Nov-24 12:32N 34°41' E 135°11'  
Track history (hours):
 
Tides and Currents Weather Stations Pressure Air Temp Water Temp Dewpoint Dewpoint Depression Visibility Wind Speed Wind Dir Waves Ship Positions

Luminous Kobe-2

Last reported at 2016-Dec-04 11:33 UTC. Time now 2016-Dec-04 12:11 UTC.
Position N 34°36' E 135°07'.

Length 105 m; draft 4.5 m.

Type: Passenger vessel. MMSI: 431000469.

Date/timePositionNaut miles runAvg speedWind from/ knotsBaromVisibWave heightAir tempDewpointWater temp
2016-Dec-04 11:33N 34°36' E 135°07'1 0.9
2016-Dec-04 10:33N 34°37' E 135°06'6 5.4
2016-Dec-04 09:28N 34°41' E 135°11'2 1.8
2016-Dec-04 08:33N 34°39' E 135°11'2 2.3
2016-Dec-04 07:33N 34°37' E 135°13'4 3.2
2016-Dec-04 06:23N 34°41' E 135°11'0 0.0
2016-Dec-04 05:29N 34°41' E 135°11'2 2.2
2016-Dec-04 04:33N 34°39' E 135°11'2 1.8
2016-Dec-04 03:33N 34°38' E 135°13'4 3.5
2016-Dec-04 02:33N 34°41' E 135°11'0 0.0
2016-Dec-04 01:33N 34°41' E 135°11'0 0.0
2016-Dec-04 00:33N 34°41' E 135°11'0 0.0
2016-Dec-03 23:33N 34°41' E 135°11'0 0.0
2016-Dec-03 22:33N 34°41' E 135°11'0 0.0
2016-Dec-03 21:33N 34°41' E 135°11'0 0.0
2016-Dec-03 20:33N 34°41' E 135°11'0 0.0
2016-Dec-03 19:33N 34°41' E 135°11'0 0.0
2016-Dec-03 18:33N 34°41' E 135°11'0 0.0
2016-Dec-03 17:33N 34°41' E 135°11'0 0.0
2016-Dec-03 16:33N 34°41' E 135°11'0 0.0
2016-Dec-03 15:33N 34°41' E 135°11'0 0.0
2016-Dec-03 14:33N 34°41' E 135°11'0 0.0
2016-Dec-03 13:33N 34°41' E 135°11'0 0.0
2016-Dec-03 12:28N 34°41' E 135°11'6 6.7
2016-Dec-03 11:33N 34°36' E 135°07'1 1.0
2016-Dec-03 10:33N 34°37' E 135°06'6 5.2
2016-Dec-03 09:28N 34°41' E 135°11'1 1.4
2016-Dec-03 08:33N 34°40' E 135°11'3 2.5
2016-Dec-03 07:34N 34°37' E 135°13'4 3.2
2016-Dec-03 06:23N 34°41' E 135°11'0 0.0
2016-Dec-03 05:29N 34°41' E 135°11'2 2.1
2016-Dec-03 04:33N 34°39' E 135°11'2 2.0
2016-Dec-03 03:33N 34°37' E 135°13'4 3.6
2016-Dec-03 02:32N 34°41' E 135°11'0 0.0
2016-Dec-03 01:32N 34°41' E 135°11'0 0.0
2016-Dec-03 00:26N 34°41' E 135°11'0 0.0
2016-Dec-02 23:32N 34°41' E 135°11'0 0.0
2016-Dec-02 22:32N 34°41' E 135°11'0 0.0
2016-Dec-02 21:26N 34°41' E 135°11'0 0.0
2016-Dec-02 20:32N 34°41' E 135°11'0 0.0
2016-Dec-02 19:20N 34°41' E 135°11'0 0.0
2016-Dec-02 18:32N 34°41' E 135°11'0 0.0
2016-Dec-02 17:26N 34°41' E 135°11'0 0.0
2016-Dec-02 16:32N 34°41' E 135°11'0 0.0
2016-Dec-02 15:32N 34°41' E 135°11'0 0.0
2016-Dec-02 14:32N 34°41' E 135°11'0 0.0
2016-Dec-02 13:32N 34°41' E 135°11'0 0.0
2016-Dec-02 12:32N 34°41' E 135°11'7 7.4
2016-Dec-02 11:33N 34°35' E 135°06'2 1.8
2016-Dec-02 10:33N 34°37' E 135°07'6 5.3
2016-Dec-02 09:30N 34°41' E 135°11'5 4.9
2016-Dec-02 08:33N 34°37' E 135°08'5 4.1
2016-Dec-02 07:24N 34°41' E 135°11'0 0.0
2016-Dec-02 06:30N 34°41' E 135°11'0 0.0
2016-Dec-02 05:30N 34°41' E 135°11'2 2.3
2016-Dec-02 04:34N 34°39' E 135°11'2 2.2
2016-Dec-02 03:34N 34°37' E 135°13'4 3.5
2016-Dec-02 02:30N 34°41' E 135°11'0 0.0
2016-Dec-02 01:24N 34°41' E 135°11'0 0.0
2016-Dec-02 00:12N 34°41' E 135°11'0 0.0
2016-Dec-01 23:30N 34°41' E 135°11'0 0.0
2016-Dec-01 22:24N 34°41' E 135°11'0 0.0
2016-Dec-01 21:30N 34°41' E 135°11'0 0.0
2016-Dec-01 20:30N 34°41' E 135°11'0 0.0
2016-Dec-01 19:30N 34°41' E 135°11'0 0.0
2016-Dec-01 18:24N 34°41' E 135°11'0 0.0
2016-Dec-01 17:18N 34°41' E 135°11'0 0.0
2016-Dec-01 16:30N 34°41' E 135°11'0 0.0
2016-Dec-01 15:30N 34°41' E 135°11'0 0.0
2016-Dec-01 14:30N 34°41' E 135°11'0 0.0
2016-Dec-01 13:30N 34°41' E 135°11'0 0.0
2016-Dec-01 12:24N 34°41' E 135°11'6 7.3
2016-Dec-01 11:33N 34°36' E 135°07'1 1.0
2016-Dec-01 10:33N 34°37' E 135°06'6 5.4
2016-Dec-01 09:28N 34°41' E 135°11'5 5.1
2016-Dec-01 08:33N 34°37' E 135°08'5 4.0
2016-Dec-01 07:22N 34°41' E 135°11'0 0.0
2016-Dec-01 06:28N 34°41' E 135°11'0 0.0
2016-Dec-01 05:28N 34°41' E 135°11'2 2.4
2016-Dec-01 04:34N 34°39' E 135°11'2 2.1
2016-Dec-01 03:33N 34°37' E 135°13'4 3.5
2016-Dec-01 02:30N 34°41' E 135°11'0 0.0
2016-Dec-01 01:30N 34°41' E 135°11'0 0.0
2016-Dec-01 00:30N 34°41' E 135°11'0 0.0
2016-Nov-30 23:24N 34°41' E 135°11'0 0.0
2016-Nov-30 22:30N 34°41' E 135°11'0 0.0
2016-Nov-30 21:30N 34°41' E 135°11'0 0.0
2016-Nov-30 20:30N 34°41' E 135°11'0 0.0
2016-Nov-30 19:24N 34°41' E 135°11'0 0.0
2016-Nov-30 18:30N 34°41' E 135°11'0 0.0
2016-Nov-30 17:30N 34°41' E 135°11'0 0.0
2016-Nov-30 16:30N 34°41' E 135°11'0 0.0
2016-Nov-30 15:30N 34°41' E 135°11'0 0.0
2016-Nov-30 14:30N 34°41' E 135°11'0 0.0
2016-Nov-30 13:30N 34°41' E 135°11'0 0.0
2016-Nov-30 12:30N 34°41' E 135°11'7 7.4
2016-Nov-30 11:33N 34°36' E 135°06'1 1.2
2016-Nov-30 10:33N 34°37' E 135°06'6 5.0
2016-Nov-30 09:20N 34°41' E 135°11'5 5.9
2016-Nov-30 08:33N 34°37' E 135°08'5 4.1
2016-Nov-30 07:24N 34°41' E 135°11'0 0.0
2016-Nov-30 06:30N 34°41' E 135°11'0 0.0
2016-Nov-30 05:30N 34°41' E 135°11'2 2.2
2016-Nov-30 04:33N 34°39' E 135°11'2 1.9
2016-Nov-30 03:34N 34°38' E 135°13'4 2.9
2016-Nov-30 02:19N 34°41' E 135°11'0 0.0
2016-Nov-30 01:19N 34°41' E 135°11'0 0.0
2016-Nov-30 00:31N 34°41' E 135°11'0 0.0
2016-Nov-29 23:31N 34°41' E 135°11'0 0.0
2016-Nov-29 22:31N 34°41' E 135°11'0 0.0
2016-Nov-29 21:31N 34°41' E 135°11'0 0.0
2016-Nov-29 20:31N 34°41' E 135°11'0 0.0
2016-Nov-29 19:31N 34°41' E 135°11'0 0.0
2016-Nov-29 18:31N 34°41' E 135°11'0 0.0
2016-Nov-29 17:31N 34°41' E 135°11'0 0.0
2016-Nov-29 16:31N 34°41' E 135°11'0 0.0
2016-Nov-29 15:31N 34°41' E 135°11'0 0.0
2016-Nov-29 14:31N 34°41' E 135°11'0 0.0
2016-Nov-29 13:31N 34°41' E 135°11'0 0.0
2016-Nov-29 12:31N 34°41' E 135°11'8 7.8
2016-Nov-29 11:33N 34°35' E 135°06'2 1.9
2016-Nov-29 10:33N 34°37' E 135°06'6 5.1
2016-Nov-29 09:23N 34°41' E 135°11'5 5.7
2016-Nov-29 08:33N 34°37' E 135°07'5 4.3
2016-Nov-29 07:28N 34°41' E 135°11'0 0.0
2016-Nov-29 06:28N 34°41' E 135°11'0 0.0
2016-Nov-29 05:22N 34°41' E 135°11'2 2.9
2016-Nov-29 04:33N 34°38' E 135°11'2 2.1
2016-Nov-29 03:34N 34°37' E 135°13'4 3.7
2016-Nov-29 02:33N 34°41' E 135°11'0 0.0
2016-Nov-29 01:33N 34°41' E 135°11'0 0.0
2016-Nov-29 00:33N 34°41' E 135°11'0 0.0
2016-Nov-28 23:33N 34°41' E 135°11'0 0.0
2016-Nov-28 22:33N 34°41' E 135°11'0 0.0
2016-Nov-28 21:27N 34°41' E 135°11'0 0.0
2016-Nov-28 20:33N 34°41' E 135°11'0 0.0
2016-Nov-28 19:33N 34°41' E 135°11'0 0.0
2016-Nov-28 18:33N 34°41' E 135°11'0 0.0
2016-Nov-28 17:27N 34°41' E 135°11'0 0.0
2016-Nov-28 16:33N 34°41' E 135°11'0 0.0
2016-Nov-28 15:33N 34°41' E 135°11'0 0.0
2016-Nov-28 14:33N 34°41' E 135°11'0 0.0
2016-Nov-28 13:33N 34°41' E 135°11'0 0.0
2016-Nov-28 12:33N 34°41' E 135°11'7 6.5
2016-Nov-28 11:33N 34°36' E 135°06'1 1.0
2016-Nov-28 10:33N 34°37' E 135°06'6 6.0
2016-Nov-28 09:32N 34°41' E 135°11'5 4.7
2016-Nov-28 08:34N 34°37' E 135°08'5 4.5
2016-Nov-28 07:32N 34°41' E 135°11'0 0.0
2016-Nov-28 06:32N 34°41' E 135°11'0 0.0
2016-Nov-28 05:26N 34°41' E 135°11'2 2.5
2016-Nov-28 04:33N 34°39' E 135°11'2 2.1
2016-Nov-28 03:34N 34°37' E 135°13'4 3.7
2016-Nov-28 02:33N 34°41' E 135°11'0 0.0
2016-Nov-28 01:33N 34°41' E 135°11'0 0.0
2016-Nov-28 00:33N 34°41' E 135°11'0 0.0
2016-Nov-27 23:27N 34°41' E 135°11'0 0.0
2016-Nov-27 22:27N 34°41' E 135°11'0 0.0
2016-Nov-27 21:27N 34°41' E 135°11'0 0.0
2016-Nov-27 20:33N 34°41' E 135°11'0 0.0
2016-Nov-27 19:33N 34°41' E 135°11'0 0.0
2016-Nov-27 18:33N 34°41' E 135°11'0 0.0
2016-Nov-27 17:33N 34°41' E 135°11'0 0.0
2016-Nov-27 16:33N 34°41' E 135°11'0 0.0
2016-Nov-27 15:33N 34°41' E 135°11'0 0.0
2016-Nov-27 14:15N 34°41' E 135°11'0 0.0
2016-Nov-27 13:33N 34°41' E 135°11'0 0.0
2016-Nov-27 12:33N 34°41' E 135°11'7 7.1
2016-Nov-27 11:33N 34°35' E 135°06'1 1.0
2016-Nov-27 10:33N 34°36' E 135°06'6 5.7
2016-Nov-27 09:30N 34°41' E 135°11'2 1.6
2016-Nov-27 08:33N 34°39' E 135°11'2 2.1
2016-Nov-27 07:33N 34°37' E 135°13'4 3.4
2016-Nov-27 06:30N 34°41' E 135°11'0 0.0
2016-Nov-27 05:24N 34°41' E 135°11'2 2.5
2016-Nov-27 04:33N 34°39' E 135°11'2 2.1
2016-Nov-27 03:33N 34°37' E 135°13'4 3.7
2016-Nov-27 02:32N 34°41' E 135°11'0 0.0
2016-Nov-27 01:20N 34°41' E 135°11'0 0.0
2016-Nov-27 00:32N 34°41' E 135°11'0 0.0
2016-Nov-26 23:32N 34°41' E 135°11'0 0.0
2016-Nov-26 22:20N 34°41' E 135°11'0 0.0
2016-Nov-26 21:32N 34°41' E 135°11'0 0.0
2016-Nov-26 19:32N 34°41' E 135°11'0 0.0
2016-Nov-26 18:32N 34°41' E 135°11'0 0.0
2016-Nov-26 17:32N 34°41' E 135°11'0 0.0
2016-Nov-26 16:32N 34°41' E 135°11'0 0.0
2016-Nov-26 15:26N 34°41' E 135°11'0 0.0
2016-Nov-26 14:20N 34°41' E 135°11'0 0.0
2016-Nov-26 13:32N 34°41' E 135°11'0 0.0
2016-Nov-26 12:32N 34°41' E 135°11'7 7.3
2016-Nov-26 11:33N 34°35' E 135°06'3 2.8
2016-Nov-26 10:34N 34°37' E 135°08'4 4.3
2016-Nov-26 09:33N 34°41' E 135°11'2 1.6
2016-Nov-26 08:33N 34°39' E 135°11'2 2.3
2016-Nov-26 07:33N 34°37' E 135°13'4 3.2
2016-Nov-26 06:24N 34°41' E 135°11'0 0.0
2016-Nov-26 05:06N 34°41' E 135°11'3 4.7
2016-Nov-26 04:33N 34°38' E 135°11'2 1.6
2016-Nov-26 03:33N 34°38' E 135°13'3 3.3
2016-Nov-26 02:31N 34°41' E 135°11'0 0.0
2016-Nov-26 01:31N 34°41' E 135°11'0 0.0
2016-Nov-26 00:31N 34°41' E 135°11'0 0.0
2016-Nov-25 23:28N 34°41' E 135°11'0 0.0
2016-Nov-25 22:22N 34°41' E 135°11'0 0.0
2016-Nov-25 21:28N 34°41' E 135°11'0 0.0
2016-Nov-25 20:28N 34°41' E 135°11'0 0.0
2016-Nov-25 19:28N 34°41' E 135°11'0 0.0
2016-Nov-25 18:28N 34°41' E 135°11'0 0.0
2016-Nov-25 17:28N 34°41' E 135°11'0 0.0
2016-Nov-25 16:28N 34°41' E 135°11'0 0.0
2016-Nov-25 15:28N 34°41' E 135°11'0 0.0
2016-Nov-25 14:28N 34°41' E 135°11'0 0.0
2016-Nov-25 13:28N 34°41' E 135°11'0 0.0
2016-Nov-25 12:28N 34°41' E 135°11'6 6.7
2016-Nov-25 11:32N 34°36' E 135°07'2 1.7
2016-Nov-25 10:33N 34°37' E 135°06'6 5.5
2016-Nov-25 09:26N 34°41' E 135°11'5 5.4
2016-Nov-25 08:33N 34°37' E 135°08'5 4.7
2016-Nov-25 07:33N 34°41' E 135°11'0 0.0
2016-Nov-25 06:33N 34°41' E 135°11'0 0.0
2016-Nov-25 05:27N 34°41' E 135°11'2 2.4
2016-Nov-25 04:34N 34°39' E 135°11'2 2.1
2016-Nov-25 03:34N 34°37' E 135°13'4 3.4
2016-Nov-25 02:26N 34°41' E 135°11'0 0.0
2016-Nov-25 01:32N 34°41' E 135°11'0 0.0
2016-Nov-25 00:32N 34°41' E 135°11'0 0.0
2016-Nov-24 23:32N 34°41' E 135°11'0 0.0
2016-Nov-24 22:26N 34°41' E 135°11'0 0.0
2016-Nov-24 21:26N 34°41' E 135°11'0 0.0
2016-Nov-24 20:32N 34°41' E 135°11'0 0.0
2016-Nov-24 19:32N 34°41' E 135°11'0 0.0
2016-Nov-24 18:32N 34°41' E 135°11'0 0.0
2016-Nov-24 17:32N 34°41' E 135°11'0 0.0
2016-Nov-24 16:32N 34°41' E 135°11'0 0.0
2016-Nov-24 15:32N 34°41' E 135°11'0 0.0
2016-Nov-24 14:32N 34°41' E 135°11'0 0.0
2016-Nov-24 13:20N 34°41' E 135°11'0 0.0
2016-Nov-24 12:32N 34°41' E 135°11'  

Dump ship's entire track history